createdAt,value
2023-11-01T09:24:37.258Z,4.00
2023-11-01T10:10:13.130Z,4.33
2023-11-01T10:20:34.832Z,3.47
2023-11-01T11:06:46.322Z,5.77
2023-11-01T11:11:38.431Z,4.57
2023-11-01T11:17:08.233Z,6.10
2023-11-01T11:22:04.490Z,5.40
2023-11-01T11:27:00.414Z,5.30
2023-11-01T11:32:03.531Z,8.43
2023-11-01T11:37:07.384Z,5.40
2023-11-01T11:42:00.923Z,5.70
2023-11-01T11:46:58.971Z,5.67
2023-11-01T11:52:15.881Z,6.77
2023-11-01T11:57:13.758Z,8.40
2023-11-01T12:02:17.861Z,7.23
2023-11-01T12:07:22.917Z,4.67
2023-11-01T12:12:15.706Z,5.80
2023-11-01T12:17:09.628Z,5.07
2023-11-01T12:22:07.412Z,6.40
2023-11-01T12:27:09.953Z,5.10
2023-11-01T12:32:10.353Z,6.33
2023-11-01T12:37:28.971Z,8.47
2023-11-01T12:42:25.873Z,7.63
2023-11-01T12:47:20.116Z,6.10
2023-11-01T12:52:19.385Z,4.43
2023-11-01T12:57:15.080Z,6.47
2023-11-01T13:02:09.687Z,6.37
2023-11-01T13:07:03.729Z,7.47
2023-11-01T13:11:56.382Z,4.63
2023-11-01T13:16:54.150Z,6.50
2023-11-01T13:21:48.120Z,6.17
2023-11-01T13:26:41.147Z,7.50
2023-11-01T13:31:36.647Z,6.13
2023-11-01T13:36:32.120Z,9.13
2023-11-01T13:41:24.144Z,9.80
2023-11-01T13:46:17.977Z,6.70
2023-11-01T13:51:13.775Z,5.13
2023-11-01T13:56:09.306Z,7.17
2023-11-01T14:01:07.648Z,6.80
2023-11-01T14:06:00.387Z,7.60
2023-11-01T14:11:00.999Z,9.60
2023-11-01T14:15:53.881Z,9.27
2023-11-01T14:20:53.502Z,6.13
2023-11-01T14:25:49.934Z,7.40
2023-11-01T14:30:45.650Z,5.93
2023-11-01T14:35:38.115Z,4.83
2023-11-01T14:40:35.558Z,8.63
2023-11-01T14:45:29.982Z,4.67
2023-11-01T14:50:23.786Z,6.47
2023-11-01T14:55:18.723Z,6.50
2023-11-01T15:00:12.409Z,5.23
2023-11-01T15:05:07.600Z,5.13
2023-11-01T15:09:59.641Z,6.70
2023-11-01T15:14:54.978Z,6.50
2023-11-01T15:19:50.819Z,5.87
2023-11-01T15:24:52.566Z,6.30
2023-11-01T15:29:44.872Z,7.57
2023-11-01T15:34:38.111Z,4.13
2023-11-01T15:39:30.561Z,5.07
2023-11-01T15:44:23.649Z,6.03
2023-11-01T15:49:18.370Z,4.63
2023-11-01T15:54:11.554Z,4.00
2023-11-01T15:59:03.637Z,4.70
2023-11-01T16:03:59.386Z,5.47
2023-11-01T16:08:51.623Z,4.80
2023-11-01T16:13:46.584Z,4.30
2023-11-01T16:18:40.136Z,5.03
2023-11-01T16:23:36.204Z,3.93
2023-11-01T16:28:29.564Z,4.33
2023-11-01T16:33:24.505Z,3.17
2023-11-01T16:38:16.861Z,6.03
2023-11-01T16:43:09.916Z,4.30
2023-11-01T16:48:03.620Z,3.50
2023-11-01T16:52:56.866Z,4.57
2023-11-01T16:57:49.154Z,2.73
2023-11-01T17:02:47.890Z,4.90
2023-11-01T17:07:43.549Z,2.23
2023-11-01T17:12:37.995Z,2.70
2023-11-01T17:17:31.068Z,1.60
2023-11-01T17:22:57.732Z,2.23
2023-11-01T17:27:51.758Z,2.77
2023-11-01T17:32:46.344Z,1.73
2023-11-01T17:37:46.858Z,2.50
2023-11-01T17:42:43.840Z,4.00
2023-11-01T17:47:37.976Z,2.03
2023-11-01T17:52:51.815Z,3.27
2023-11-01T17:57:46.729Z,1.20
2023-11-01T18:03:14.761Z,3.07
2023-11-01T18:08:15.292Z,3.43
2023-11-01T18:13:23.021Z,4.67
2023-11-01T18:18:31.832Z,2.83
2023-11-01T18:23:28.080Z,2.03
2023-11-01T18:28:21.066Z,2.07
2023-11-01T18:33:13.378Z,1.43
2023-11-01T18:38:10.220Z,1.77
2023-11-01T18:43:04.916Z,2.00
2023-11-01T18:47:58.485Z,3.00
2023-11-01T18:52:52.578Z,2.97
2023-11-01T18:57:46.263Z,2.93
2023-11-01T19:02:38.483Z,1.97
2023-11-01T19:07:38.739Z,2.40
2023-11-01T19:12:36.582Z,3.77
2023-11-01T19:17:38.655Z,2.50
2023-11-01T19:22:32.538Z,3.73
2023-11-01T19:27:25.370Z,2.33
2023-11-01T19:32:17.897Z,3.37
2023-11-01T19:37:11.374Z,5.83
2023-11-01T19:42:05.331Z,7.43
2023-11-01T19:46:58.214Z,2.80
2023-11-01T19:51:51.181Z,4.03
2023-11-01T19:56:44.004Z,3.77
2023-11-01T20:01:37.167Z,3.50
2023-11-01T20:06:33.248Z,3.20
2023-11-01T20:11:25.492Z,4.87
2023-11-01T20:16:25.614Z,2.53
2023-11-01T20:21:22.773Z,5.10
2023-11-01T20:26:15.676Z,2.37
2023-11-01T20:31:13.466Z,3.27
2023-11-01T20:36:06.047Z,3.20
2023-11-01T20:40:58.557Z,6.20
2023-11-01T20:45:50.911Z,2.67
2023-11-01T20:50:44.762Z,4.23
2023-11-01T20:55:39.581Z,3.50
2023-11-01T21:00:31.830Z,4.63
2023-11-01T21:05:26.634Z,3.27
2023-11-01T21:10:20.110Z,2.73
2023-11-01T21:15:15.344Z,1.47
2023-11-01T21:20:15.406Z,2.50
2023-11-01T21:25:09.690Z,2.47
2023-11-01T21:30:04.869Z,4.27
2023-11-01T21:34:57.665Z,2.70
2023-11-01T21:39:51.048Z,1.80
2023-11-01T21:44:45.627Z,1.70
2023-11-01T21:49:44.198Z,2.23
2023-11-01T21:54:37.479Z,2.03
2023-11-01T21:59:31.964Z,2.13
2023-11-01T22:04:34.904Z,1.83
2023-11-01T22:09:28.067Z,2.53
2023-11-01T22:14:34.594Z,2.63
2023-11-01T22:19:38.218Z,2.17
2023-11-01T22:24:35.029Z,1.40
2023-11-01T22:29:50.459Z,1.90
2023-11-01T22:34:42.777Z,4.80
2023-11-01T22:39:43.276Z,2.73
2023-11-01T22:44:36.347Z,3.97
2023-11-01T22:49:28.509Z,2.40
2023-11-01T22:54:21.253Z,2.70
2023-11-01T22:59:15.337Z,3.27
2023-11-01T23:04:07.372Z,2.83
2023-11-01T23:08:59.553Z,4.47
2023-11-01T23:13:52.163Z,1.60
2023-11-01T23:18:47.522Z,3.33
2023-11-01T23:23:40.348Z,2.40
2023-11-01T23:28:39.457Z,3.50
2023-11-01T23:33:38.199Z,2.77
2023-11-01T23:38:34.932Z,2.73
2023-11-01T23:43:34.122Z,2.97
2023-11-01T23:48:26.971Z,1.77
2023-11-01T23:53:24.277Z,3.07
2023-11-01T23:58:35.213Z,4.40
